Time;durP1;ratioP1;P1;durP2;ratioP2;P2;SDS_P1;SDS_P2;PMS_P1;PMS_P2;Temp;Humidity;BMP_temperature;BMP_pressure;BME280_temperature;BME280_humidity;BME280_pressure;Samples;Min_cycle;Max_cycle;Signal;HPM_P1;HPM_P2
2021/01/14 00:01:03;;;;;;;11.45;2.30;;;;;;;6.99;63.89;101891.59;5044336;28;20452;-81
2021/01/14 00:03:30;;;;;;;12.32;1.63;;;;;;;6.99;64.16;101894.22;5043230;28;20033;-81
2021/01/14 00:05:56;;;;;;;10.38;1.58;;;;;;;6.99;64.24;101903.03;5040292;28;20057;-80
2021/01/14 00:08:23;;;;;;;8.60;1.25;;;;;;;7.00;64.50;101904.78;5045947;28;20035;-80
2021/01/14 00:10:49;;;;;;;12.75;1.80;;;;;;;7.00;64.05;101898.63;5042459;28;20030;-80
2021/01/14 00:13:16;;;;;;;10.43;2.17;;;;;;;6.97;64.37;101897.72;5042461;28;20032;-79
2021/01/14 00:15:42;;;;;;;9.68;1.58;;;;;;;6.97;64.38;101895.06;5044263;28;20025;-80
2021/01/14 00:18:09;;;;;;;7.07;1.58;;;;;;;6.97;64.55;101900.34;5042840;28;20021;-80
2021/01/14 00:20:36;;;;;;;7.50;2.47;;;;;;;6.96;64.28;101897.69;5042563;28;20025;-81
2021/01/14 00:23:02;;;;;;;19.23;2.13;;;;;;;6.96;64.77;101890.66;5044125;28;20020;-79
2021/01/14 00:25:29;;;;;;;13.95;1.70;;;;;;;6.96;64.76;101893.31;5042578;28;20084;-80
2021/01/14 00:27:55;;;;;;;14.50;2.25;;;;;;;6.96;64.79;101897.69;5040505;28;20511;-80
2021/01/14 00:30:27;;;;;;;7.15;1.85;;;;;;;7.01;65.05;101887.22;5043860;28;20049;-81
2021/01/14 00:32:54;;;;;;;6.10;2.20;;;;;;;6.95;65.07;101885.38;5043455;28;20030;-81
2021/01/14 00:35:21;;;;;;;10.32;1.83;;;;;;;6.92;64.76;101883.59;5041759;28;20026;-80
2021/01/14 00:37:51;;;;;;;9.60;2.40;;;;;;;6.93;64.97;101887.16;5043308;28;20024;-80
2021/01/14 00:40:20;;;;;;;8.13;1.40;;;;;;;6.94;64.66;101883.63;5043533;28;20028;-80
2021/01/14 00:42:52;;;;;;;14.20;3.90;;;;;;;6.90;64.76;101887.09;5039961;28;20060;-80
2021/01/14 00:45:19;;;;;;;10.52;2.65;;;;;;;6.89;64.96;101878.31;5041656;28;20036;-80
2021/01/14 00:47:45;;;;;;;9.65;1.73;;;;;;;6.88;65.16;101880.91;5043580;28;20033;-80
2021/01/14 00:50:12;;;;;;;6.75;1.80;;;;;;;6.85;65.13;101879.13;5037293;28;20036;-79
2021/01/14 00:52:39;;;;;;;7.55;1.40;;;;;;;6.84;64.98;101884.38;5037870;28;20029;-79
2021/01/14 00:55:07;;;;;;;12.18;2.08;;;;;;;6.83;65.16;101883.50;5034015;28;20025;-79
2021/01/14 00:57:35;;;;;;;10.63;2.03;;;;;;;6.87;65.01;101889.69;5042988;28;20075;-81
2021/01/14 01:00:05;;;;;;;9.45;2.55;;;;;;;6.87;65.07;101898.47;5041370;28;20017;-81
2021/01/14 01:02:31;;;;;;;13.82;1.48;;;;;;;6.87;65.15;101902.88;5034614;28;20430;-82
2021/01/14 01:04:58;;;;;;;8.05;1.45;;;;;;;6.85;64.68;101904.59;5033238;28;20030;-81
2021/01/14 01:07:24;;;;;;;8.75;1.38;;;;;;;6.86;64.77;101909.00;5033728;28;20075;-80
2021/01/14 01:09:51;;;;;;;8.30;1.33;;;;;;;6.84;64.93;101909.00;5033561;28;20025;-80
2021/01/14 01:12:17;;;;;;;5.97;1.20;;;;;;;6.83;64.92;101912.47;5032862;28;20026;-81
2021/01/14 01:14:44;;;;;;;5.75;1.20;;;;;;;6.82;65.04;101910.72;5032867;28;20040;-80
2021/01/14 01:17:11;;;;;;;5.50;1.80;;;;;;;6.82;64.95;101909.81;5033126;28;20069;-84
2021/01/14 01:19:38;;;;;;;7.80;1.90;;;;;;;6.80;65.07;101913.34;5032759;28;20034;-78
2021/01/14 01:22:04;;;;;;;7.70;1.40;;;;;;;6.80;65.03;101901.91;5031383;28;20519;-80
2021/01/14 01:24:31;;;;;;;6.68;1.85;;;;;;;6.79;65.04;101906.28;5036747;28;20033;-80
2021/01/14 01:26:57;;;;;;;10.18;1.50;;;;;;;6.77;64.88;101908.00;5037104;28;20025;-79
2021/01/14 01:29:23;;;;;;;5.82;1.20;;;;;;;6.78;65.14;101904.50;5036879;28;20044;-79
2021/01/14 01:31:50;;;;;;;10.23;1.50;;;;;;;6.77;65.15;101908.00;5037075;28;20564;-81
2021/01/14 01:34:17;;;;;;;5.40;1.35;;;;;;;6.76;64.80;101910.63;5036750;28;20067;-81
2021/01/14 01:36:49;;;;;;;7.55;1.70;;;;;;;6.76;64.74;101922.03;5036114;28;20026;-81
2021/01/14 01:39:15;;;;;;;15.60;2.10;;;;;;;6.75;64.53;101928.19;5036294;28;20017;-81
2021/01/14 01:41:59;;;;;;;8.80;1.70;;;;;;;6.79;64.67;101930.00;5036590;28;20033;-78
2021/01/14 01:44:38;;;;;;;6.50;1.92;;;;;;;6.80;64.78;101944.03;5021049;28;20030;-78
2021/01/14 01:47:14;;;;;;;9.00;1.35;;;;;;;6.76;64.45;101936.97;5036747;28;20468;-79
2021/01/14 01:49:41;;;;;;;5.88;1.27;;;;;;;6.70;64.44;101948.28;5036402;28;20037;-81
2021/01/14 01:52:08;;;;;;;8.98;1.33;;;;;;;6.71;64.67;101950.06;5036237;28;20034;-80
2021/01/14 01:54:36;;;;;;;7.72;1.63;;;;;;;6.71;64.54;101952.69;5035995;28;20040;-79
2021/01/14 01:57:05;;;;;;;5.10;1.33;;;;;;;6.73;64.28;101956.25;5036616;28;20124;-81
2021/01/14 01:59:33;;;;;;;13.25;1.55;;;;;;;6.73;64.46;101958.88;5036768;28;20031;-80
2021/01/14 02:02:21;;;;;;;7.78;1.45;;;;;;;6.80;63.98;101966.03;5036342;28;20037;-79
2021/01/14 02:04:48;;;;;;;10.73;1.42;;;;;;;6.69;64.53;101966.72;5023683;28;20498;-80
2021/01/14 02:07:24;;;;;;;9.73;1.85;;;;;;;6.69;64.29;101970.25;5036372;28;20025;-80
2021/01/14 02:09:55;;;;;;;9.57;1.45;;;;;;;6.69;64.58;101967.63;5036023;28;20176;-81
2021/01/14 02:12:31;;;;;;;9.50;1.30;;;;;;;6.69;64.45;101969.34;5036275;28;20037;-80
2021/01/14 02:14:59;;;;;;;3.42;1.40;;;;;;;6.63;64.52;101968.41;5027416;28;20089;-79
2021/01/14 02:17:27;;;;;;;6.68;1.25;;;;;;;6.64;64.49;101977.19;5035891;28;20034;-79
2021/01/14 02:19:57;;;;;;;14.32;1.77;;;;;;;6.62;64.65;101976.28;5036639;28;20117;-78
2021/01/14 02:22:37;;;;;;;8.93;1.15;;;;;;;6.65;64.38;101984.22;5029656;28;20025;-79
2021/01/14 02:27:43;;;;;;;10.80;1.50;;;;;;;6.56;64.34;101981.47;5075685;27;20642;-80
2021/01/14 02:30:11;;;;;;;8.00;1.35;;;;;;;6.55;64.49;101985.81;5051889;28;20030;-79
2021/01/14 02:32:37;;;;;;;5.57;1.00;;;;;;;6.53;64.65;101991.94;5050706;28;20035;-81
2021/01/14 02:35:05;;;;;;;5.82;1.40;;;;;;;6.53;64.25;101986.66;5050640;28;20147;-80
2021/01/14 02:37:31;;;;;;;7.18;1.35;;;;;;;6.50;64.37;101984.88;5050656;28;20491;-79
2021/01/14 02:39:58;;;;;;;6.22;1.63;;;;;;;6.48;64.40;101984.88;5063038;22;20095;-82
2021/01/14 02:42:24;;;;;;;9.23;1.20;;;;;;;6.48;64.43;101995.41;5050355;28;20033;-82
2021/01/14 02:44:51;;;;;;;5.22;1.30;;;;;;;6.47;64.40;101998.00;5049080;28;20037;-83
2021/01/14 02:47:21;;;;;;;7.55;1.40;;;;;;;6.45;64.21;101992.69;5050246;28;20029;-81
2021/01/14 02:49:54;;;;;;;8.00;1.35;;;;;;;6.47;64.37;101998.00;5049618;28;20388;-81
2021/01/14 02:52:23;;;;;;;8.18;1.75;;;;;;;6.42;64.28;102000.56;5049242;28;20076;-84
2021/01/14 02:54:51;;;;;;;6.45;1.30;;;;;;;6.39;64.45;101997.91;5045818;28;20026;-84
2021/01/14 02:57:17;;;;;;;10.23;1.17;;;;;;;6.35;64.55;101996.06;5038547;28;20389;-85
2021/01/14 02:59:46;;;;;;;12.93;1.38;;;;;;;6.36;64.72;101989.94;5042762;28;20044;-84
2021/01/14 03:02:12;;;;;;;3.42;1.00;;;;;;;6.33;64.69;101989.91;5033439;28;20436;-84
2021/01/14 03:04:39;;;;;;;4.50;1.40;;;;;;;6.32;64.54;101993.38;5049300;28;20488;-84
2021/01/14 03:07:05;;;;;;;7.07;1.20;;;;;;;6.30;64.69;101989.84;5039718;28;20124;-82
2021/01/14 03:09:32;;;;;;;10.63;1.70;;;;;;;6.30;64.82;101989.84;5048653;28;20026;-82
2021/01/14 03:11:58;;;;;;;9.57;1.65;;;;;;;6.28;64.64;101992.44;5042357;28;20156;-81
2021/01/14 03:14:25;;;;;;;4.47;1.02;;;;;;;6.28;64.64;101988.91;5049681;28;20147;-83
2021/01/14 03:16:51;;;;;;;7.05;1.42;;;;;;;6.26;64.78;101998.56;5041866;28;20041;-84
2021/01/14 03:19:17;;;;;;;8.20;1.48;;;;;;;6.25;64.62;101999.41;5046435;28;20060;-83
2021/01/14 03:21:44;;;;;;;9.30;1.60;;;;;;;6.21;64.67;101997.59;5037658;28;20045;-85
2021/01/14 03:24:10;;;;;;;12.23;2.65;;;;;;;6.18;64.40;101994.91;5033068;28;20448;-84
2021/01/14 03:26:38;;;;;;;7.50;1.77;;;;;;;6.14;64.68;102000.13;5049501;28;20104;-83
2021/01/14 03:29:05;;;;;;;6.85;1.10;;;;;;;6.13;64.64;102003.59;5039627;28;20026;-84
2021/01/14 03:31:31;;;;;;;5.45;1.20;;;;;;;6.11;64.68;101991.28;5042904;28;20054;-83
2021/01/14 03:33:57;;;;;;;6.97;1.38;;;;;;;6.10;64.60;101995.66;5046828;28;20036;-83
2021/01/14 03:36:24;;;;;;;5.10;1.13;;;;;;;6.05;64.82;101989.41;5029256;28;20499;-84
2021/01/14 03:38:50;;;;;;;8.85;1.88;;;;;;;6.06;65.05;101991.19;5017356;28;20026;-84
2021/01/14 03:41:18;;;;;;;7.07;1.63;;;;;;;6.07;64.77;101987.72;5027419;28;20044;-82
2021/01/14 03:43:45;;;;;;;6.53;1.65;;;;;;;6.04;64.86;101981.50;5035173;28;20026;-85
2021/01/14 03:46:20;;;;;;;5.78;1.17;;;;;;;6.08;64.91;101997.38;5032904;28;20040;-84
2021/01/14 03:48:47;;;;;;;6.22;1.48;;;;;;;6.03;64.89;101992.88;5019327;28;20026;-87
2021/01/14 03:51:20;;;;;;;6.03;1.27;;;;;;;6.02;65.07;101994.66;5026729;28;20033;-85
2021/01/14 03:53:47;;;;;;;7.18;2.28;;;;;;;6.01;65.10;101984.97;5026795;28;20025;-88
2021/01/14 03:56:14;;;;;;;6.80;1.33;;;;;;;6.02;65.04;101991.13;5032920;28;20068;-87
2021/01/14 03:58:41;;;;;;;6.85;1.25;;;;;;;6.02;65.03;101994.66;5022114;28;20385;-85
2021/01/14 04:01:08;;;;;;;6.95;1.27;;;;;;;6.03;65.00;101998.16;5025212;28;20030;-85
2021/01/14 04:03:40;;;;;;;4.75;1.45;;;;;;;6.07;65.12;102003.50;5029261;28;20104;-83
2021/01/14 04:06:06;;;;;;;7.32;1.60;;;;;;;6.03;65.04;102000.78;5033857;28;20124;-84
2021/01/14 04:08:32;;;;;;;7.10;1.23;;;;;;;6.00;65.02;101996.34;5020796;28;20034;-85
2021/01/14 04:10:59;;;;;;;3.03;0.93;;;;;;;6.01;65.25;102006.03;5050317;22;20037;-79
2021/01/14 04:13:25;;;;;;;3.10;1.00;;;;;;;6.01;64.89;101997.22;5035824;28;20385;-80
2021/01/14 04:15:52;;;;;;;7.35;1.15;;;;;;;6.00;65.34;101996.34;5035955;28;20037;-80
2021/01/14 04:18:18;;;;;;;6.65;1.20;;;;;;;5.99;65.15;101997.22;5036010;28;20034;-82
2021/01/14 04:20:44;;;;;;;7.60;1.05;;;;;;;5.98;65.24;102000.66;5035581;28;20503;-79
2021/01/14 04:23:11;;;;;;;4.55;1.50;;;;;;;5.96;65.23;101998.00;5035893;28;20032;-79
2021/01/14 04:25:37;;;;;;;5.55;1.40;;;;;;;5.94;65.13;101997.13;5035450;28;20059;-78
2021/01/14 04:28:05;;;;;;;3.80;1.10;;;;;;;5.88;65.41;102006.63;5036151;28;20033;-81
2021/01/14 04:30:34;;;;;;;9.63;2.45;;;;;;;5.82;65.60;101996.91;5035239;28;20045;-79
2021/01/14 04:33:17;;;;;;;5.50;1.00;;;;;;;5.78;65.80;101995.94;5035741;28;20030;-78
2021/01/14 04:38:29;;;;;;;4.95;1.52;;;;;;;5.79;65.77;102002.09;5112016;27;20378;-79
2021/01/14 04:41:00;;;;;;;10.43;1.95;;;;;;;5.78;65.91;101995.94;5111280;28;20563;-79
2021/01/14 04:43:28;;;;;;;4.05;1.30;;;;;;;5.74;66.19;101988.84;5111902;28;20423;-80
2021/01/14 04:46:04;;;;;;;11.57;1.55;;;;;;;5.75;66.01;101995.88;5111721;28;20035;-80
2021/01/14 04:48:35;;;;;;;5.55;1.33;;;;;;;5.73;65.81;101997.59;5111837;28;20024;-84
2021/01/14 04:51:10;;;;;;;5.03;1.33;;;;;;;5.79;65.96;102002.94;5111322;28;20077;-81
2021/01/14 04:53:40;;;;;;;5.75;1.20;;;;;;;5.72;65.82;102000.19;5111830;28;20397;-80
2021/01/14 04:56:08;;;;;;;4.03;1.35;;;;;;;5.71;65.55;102007.22;5111623;28;20462;-79
2021/01/14 04:58:36;;;;;;;4.05;1.10;;;;;;;5.70;65.85;102007.19;5110263;28;20498;-80
2021/01/14 05:01:09;;;;;;;6.97;1.63;;;;;;;5.72;65.84;102006.34;5110821;28;20028;-80
2021/01/14 05:03:40;;;;;;;7.15;1.33;;;;;;;5.72;65.61;102010.69;5111325;28;20501;-81
2021/01/14 05:06:10;;;;;;;4.68;1.30;;;;;;;5.66;65.59;102007.09;5110785;28;20115;-79
2021/01/14 05:08:43;;;;;;;5.18;1.33;;;;;;;5.69;65.70;102014.16;5111448;28;20042;-81
2021/01/14 05:11:15;;;;;;;7.78;1.35;;;;;;;5.68;65.66;102020.28;5110930;28;20023;-81
2021/01/14 05:13:42;;;;;;;9.05;1.63;;;;;;;5.62;65.66;102028.03;5110965;28;20024;-80
2021/01/14 05:16:08;;;;;;;2.95;1.05;;;;;;;5.59;65.55;102025.38;5110949;28;20076;-81
2021/01/14 05:18:35;;;;;;;8.98;1.00;;;;;;;5.60;65.42;102033.28;5110998;28;20467;-79
2021/01/14 05:21:02;;;;;;;8.50;1.55;;;;;;;5.57;65.72;102035.88;5110935;28;20059;-83
2021/01/14 05:23:31;;;;;;;16.30;1.60;;;;;;;5.56;65.82;102035.81;5110738;28;20034;-82
2021/01/14 05:25:58;;;;;;;2.20;1.05;;;;;;;5.56;65.74;102027.91;5110676;28;20100;-79
2021/01/14 05:28:26;;;;;;;4.63;1.38;;;;;;;5.56;65.74;102035.81;5110860;28;20036;-81
2021/01/14 05:30:53;;;;;;;3.35;1.55;;;;;;;5.54;65.83;102035.78;5110491;28;20063;-80
2021/01/14 05:33:23;;;;;;;10.00;1.63;;;;;;;5.58;65.61;102039.38;5110650;28;20082;-82
2021/01/14 05:35:51;;;;;;;7.68;1.65;;;;;;;5.54;65.67;102037.53;5110835;28;20060;-78
2021/01/14 05:43:55;;;;;;;7.35;1.60;;;;;;;5.58;65.69;102044.63;5090884;27;20385;-82
2021/01/14 05:46:23;;;;;;;4.75;1.98;;;;;;;5.55;65.52;102044.59;5070759;28;20083;-77
2021/01/14 05:48:52;;;;;;;3.78;1.58;;;;;;;5.53;65.83;102048.91;5071134;28;20472;-78
2021/01/14 05:51:28;;;;;;;3.65;1.25;;;;;;;5.59;65.90;102041.16;5041579;28;20543;-80
2021/01/14 05:56:49;;;;;;;3.58;1.40;;;;;;;5.53;65.89;102035.75;5035804;28;20420;-79
2021/01/14 05:59:18;;;;;;;4.65;1.20;;;;;;;5.51;65.86;102033.97;5026815;28;20543;-79
2021/01/14 06:02:01;;;;;;;8.65;1.40;;;;;;;5.56;65.84;102033.19;5010331;28;20485;-79
2021/01/14 06:04:28;;;;;;;;;;;;;;;5.62;65.26;102028.03;5010113;28;20492;-78
2021/01/14 06:06:57;;;;;;;5.05;1.38;;;;;;;5.43;65.97;102029.44;5008240;28;19982;-78
2021/01/14 06:09:24;;;;;;;5.47;2.00;;;;;;;5.40;65.85;102030.25;5010122;28;20026;-79
2021/01/14 06:12:05;;;;;;;8.95;2.67;;;;;;;5.37;65.99;102030.22;5010150;28;20474;-78
2021/01/14 06:14:32;;;;;;;9.80;1.42;;;;;;;5.34;66.19;102030.13;5007388;28;20018;-80
2021/01/14 06:17:01;;;;;;;8.75;1.38;;;;;;;5.29;66.24;102026.53;5009064;28;20061;-79
2021/01/14 06:19:28;;;;;;;4.82;1.15;;;;;;;5.26;65.88;102031.69;5009202;28;20580;-79
2021/01/14 06:21:55;;;;;;;6.40;1.30;;;;;;;5.22;66.06;102024.63;5008656;28;20026;-80
2021/01/14 06:27:12;;;;;;;5.63;1.98;;;;;;;5.17;66.38;102041.19;5037815;28;20420;-80
2021/01/14 06:29:41;;;;;;;3.67;1.50;;;;;;;5.17;66.26;102033.28;5023783;28;20072;-80
2021/01/14 06:32:10;;;;;;;4.28;1.33;;;;;;;5.16;66.52;102041.16;5009951;28;20022;-81
2021/01/14 06:34:39;;;;;;;3.47;1.23;;;;;;;5.16;66.56;102044.66;5001736;28;20026;-80
2021/01/14 06:37:08;;;;;;;6.53;1.00;;;;;;;5.16;66.17;102049.03;5010595;28;20042;-81
2021/01/14 06:39:41;;;;;;;9.73;1.63;;;;;;;5.18;66.16;102044.69;4993527;28;20382;-81
2021/01/14 06:42:27;;;;;;;;;;;;;;;5.31;66.01;102051.09;5011119;28;20026;-80
2021/01/14 06:44:58;;;;;;;3.38;1.70;;;;;;;5.17;66.21;102050.78;5009080;28;20000;-80
2021/01/14 06:50:24;;;;;;;3.53;1.33;;;;;;;5.27;65.84;102052.78;5066144;27;20403;-77
2021/01/14 06:53:12;;;;;;;9.18;1.60;;;;;;;5.29;65.51;102055.44;5059006;28;20025;-77
2021/01/14 06:55:39;;;;;;;4.32;1.50;;;;;;;5.20;66.13;102064.00;5058434;28;20059;-80
2021/01/14 06:58:09;;;;;;;4.60;1.27;;;;;;;5.21;65.73;102067.50;5055141;28;20040;-78
2021/01/14 07:03:24;;;;;;;2.67;0.95;;;;;;;5.09;66.17;102066.38;5110629;27;20120;-79
2021/01/14 07:08:41;;;;;;;4.00;1.20;;;;;;;5.17;65.75;102075.34;5120873;27;748649;-78
2021/01/14 07:13:53;;;;;;;6.30;1.13;;;;;;;5.16;65.80;102072.69;5075989;27;20383;-82
2021/01/14 07:16:20;;;;;;;5.40;0.90;;;;;;;5.11;66.03;102077.81;5074746;28;20079;-80
2021/01/14 07:18:47;;;;;;;6.00;1.20;;;;;;;5.11;66.17;102077.81;5070674;28;20032;-80
2021/01/14 07:21:34;;;;;;;8.35;1.23;;;;;;;5.17;65.66;102070.09;5070423;28;20029;-80
2021/01/14 07:24:23;;;;;;;7.78;1.98;;;;;;;5.16;65.34;102077.94;5065563;28;20037;-79
2021/01/14 07:26:57;;;;;;;5.32;1.20;;;;;;;5.08;65.56;102068.97;5050682;28;20029;-79
2021/01/14 07:29:25;;;;;;;3.28;1.00;;;;;;;4.99;65.77;102074.91;5060699;28;20025;-79
2021/01/14 07:31:53;;;;;;;3.58;1.98;;;;;;;4.98;65.70;102079.25;5070220;28;20029;-80
2021/01/14 07:37:19;;;;;;;4.18;1.67;;;;;;;4.98;66.01;102086.28;5087481;28;20183;-79
2021/01/14 07:42:50;;;;;;;5.40;1.65;;;;;;;4.96;66.12;102090.59;5048831;28;20124;-79
2021/01/14 07:45:16;;;;;;;8.57;1.38;;;;;;;4.96;65.90;102090.59;5030684;28;20037;-80
2021/01/14 07:47:42;;;;;;;5.75;1.50;;;;;;;4.98;66.01;102110.78;5027540;28;20030;-78
2021/01/14 07:50:28;;;;;;;5.07;1.52;;;;;;;5.08;65.96;102109.25;5022812;28;20076;-79
2021/01/14 07:52:57;;;;;;;4.80;1.20;;;;;;;5.04;65.57;102106.56;5003174;28;20121;-84
2021/01/14 07:55:25;;;;;;;25.00;2.85;;;;;;;5.02;66.14;102110.03;5024405;28;20492;-84
2021/01/14 08:01:09;;;;;;;2.45;0.90;;;;;;;5.12;65.82;102124.25;5061231;28;20406;-84
2021/01/14 08:08:58;;;;;;;6.57;1.65;;;;;;;5.05;65.93;102124.97;5121120;27;20384;-80
2021/01/14 08:11:27;;;;;;;6.32;1.45;;;;;;;5.04;66.23;102131.06;5088941;28;20429;-79
2021/01/14 08:16:51;;;;;;;7.80;1.20;;;;;;;5.11;66.33;102138.25;5087924;28;20419;-79
2021/01/14 08:22:10;;;;;;;7.30;1.80;;;;;;;5.12;66.28;102141.75;5085112;28;20915;-81
2021/01/14 08:24:59;;;;;;;8.60;1.48;;;;;;;5.24;65.79;102142.03;5047550;28;20556;-81
2021/01/14 08:35:41;;;;;;;9.27;2.65;;;;;;;5.20;66.16;102142.84;5090930;27;20419;-79
2021/01/14 08:40:51;;;;;;;26.52;9.07;;;;;;;5.18;66.22;102140.19;5074975;27;20412;-79
2021/01/14 08:43:18;;;;;;;12.20;4.13;;;;;;;5.23;66.01;102144.63;5070896;28;20070;-78
2021/01/14 08:48:31;;;;;;;7.78;2.45;;;;;;;5.29;66.25;102142.16;5101021;27;20387;-77
2021/01/14 08:53:40;;;;;;;10.95;1.58;;;;;;;5.29;66.15;102150.03;5108006;27;20374;-84
2021/01/14 08:56:09;;;;;;;10.07;1.83;;;;;;;5.36;65.94;102149.34;5110604;28;20479;-83
2021/01/14 09:04:00;;;;;;;13.52;1.73;;;;;;;5.41;65.43;102154.66;5084523;27;20393;-85
2021/01/14 09:06:32;;;;;;;7.47;1.27;;;;;;;5.51;65.56;102160.16;5068877;28;20086;-86
2021/01/14 09:09:02;;;;;;;5.22;1.90;;;;;;;5.51;65.54;102165.44;5066931;28;20052;-80
2021/01/14 09:11:29;;;;;;;5.85;1.20;;;;;;;5.56;65.47;102157.66;5062374;28;20024;-79
2021/01/14 09:14:12;;;;;;;4.78;1.23;;;;;;;5.68;65.05;102157.00;5054106;28;20026;-82
2021/01/14 09:16:39;;;;;;;5.90;1.23;;;;;;;5.64;65.33;102156.06;5059032;28;20021;-80
2021/01/14 09:19:25;;;;;;;5.30;1.67;;;;;;;5.74;64.75;102159.78;5059068;28;20029;-81
2021/01/14 09:21:51;;;;;;;82.63;31.05;;;;;;;5.70;65.27;102162.34;5057114;28;20025;-80
2021/01/14 09:24:18;;;;;;;17.42;4.20;;;;;;;5.76;65.07;102155.44;5067717;28;20046;-83
2021/01/14 09:26:50;;;;;;;9.35;2.22;;;;;;;5.84;64.58;102155.59;5062669;28;20021;-87
2021/01/14 09:29:18;;;;;;;10.43;2.30;;;;;;;5.82;64.73;102160.84;5054071;28;20069;-81
2021/01/14 09:31:44;;;;;;;6.97;2.28;;;;;;;5.83;64.79;102156.44;5053761;28;20044;-88
2021/01/14 09:34:11;;;;;;;12.98;1.50;;;;;;;5.86;64.62;102155.63;5057020;28;20112;-79
2021/01/14 09:36:37;;;;;;;3.63;1.13;;;;;;;5.88;64.45;102165.34;5062470;28;20033;-82
2021/01/14 09:39:13;;;;;;;8.70;1.23;;;;;;;5.92;64.15;102164.56;5057887;28;20108;-77
2021/01/14 09:41:40;;;;;;;4.47;1.38;;;;;;;5.98;63.92;102161.13;5057619;28;20117;-79
2021/01/14 09:44:09;;;;;;;5.30;1.27;;;;;;;6.03;63.75;102163.91;5058608;28;20025;-80
2021/01/14 09:46:38;;;;;;;8.38;1.63;;;;;;;6.04;63.95;102166.56;5057669;28;20033;-80
2021/01/14 09:49:07;;;;;;;7.40;1.67;;;;;;;6.09;63.76;102175.47;5055110;28;20029;-80
2021/01/14 09:51:34;;;;;;;10.00;1.48;;;;;;;6.14;63.53;102171.16;5056962;28;20463;-79
2021/01/14 09:54:02;;;;;;;7.20;1.33;;;;;;;6.15;63.57;102169.41;5059931;28;20029;-79
2021/01/14 09:59:17;;;;;;;6.85;1.73;;;;;;;6.28;63.21;102181.06;5058654;28;20453;-79
2021/01/14 10:01:53;;;;;;;2.38;1.00;;;;;;;6.31;63.13;102173.22;5045110;28;20033;-79
2021/01/14 10:04:24;;;;;;;3.95;1.08;;;;;;;6.31;63.13;102182.00;5040088;28;20482;-81
2021/01/14 10:07:00;;;;;;;4.40;1.40;;;;;;;6.35;62.78;102171.56;5032332;28;20030;-79
2021/01/14 10:09:27;;;;;;;7.10;1.77;;;;;;;6.36;62.52;102175.97;5053871;22;20044;-86
2021/01/14 10:11:54;;;;;;;4.60;1.20;;;;;;;6.37;62.21;102175.97;5047540;28;20048;-87
2021/01/14 10:14:21;;;;;;;6.68;2.00;;;;;;;6.27;62.34;102179.31;5037485;28;20017;-86
2021/01/14 10:16:50;;;;;;;5.78;1.90;;;;;;;6.33;61.99;102168.91;5041538;28;20032;-86
2021/01/14 10:19:18;;;;;;;7.05;2.13;;;;;;;6.36;61.77;102168.94;5040190;28;20336;-85
2021/01/14 10:21:46;;;;;;;10.73;2.53;;;;;;;6.38;61.34;102167.22;5037020;28;20404;-87
2021/01/14 10:27:21;;;;;;;9.02;1.83;;;;;;;6.40;59.55;102154.97;5109376;27;20367;-86
2021/01/14 10:29:48;;;;;;;4.15;1.95;;;;;;;6.38;60.67;102159.34;5106377;28;20054;-86
2021/01/14 10:32:16;;;;;;;3.85;1.40;;;;;;;6.41;60.44;102151.47;5107564;28;20028;-86
2021/01/14 10:34:51;;;;;;;7.18;1.85;;;;;;;6.41;60.00;102155.88;5111731;28;20453;-87
2021/01/14 10:40:03;;;;;;;6.93;1.80;;;;;;;6.36;59.89;102158.41;5141380;27;20358;-90
2021/01/14 10:42:33;;;;;;;5.88;1.60;;;;;;;6.39;59.67;102157.56;5116675;27;20054;-86
2021/01/14 10:45:05;;;;;;;7.38;1.60;;;;;;;6.39;59.11;102152.31;5139483;27;20028;-88
2021/01/14 10:47:33;;;;;;;13.98;2.03;;;;;;;6.44;59.27;102146.28;5126375;27;20217;-88
2021/01/14 10:49:59;;;;;;;4.53;1.45;;;;;;;6.48;59.16;102141.97;5124869;27;20114;-89
2021/01/14 10:52:25;;;;;;;7.13;1.75;;;;;;;6.52;58.76;102140.25;5122824;28;20408;-90
2021/01/14 10:54:57;;;;;;;12.52;1.50;;;;;;;6.51;58.00;102142.00;5126469;27;20036;-89
2021/01/14 10:57:23;;;;;;;5.72;1.90;;;;;;;6.52;58.51;102142.88;5129491;27;20027;-89
2021/01/14 10:59:49;;;;;;;5.53;1.52;;;;;;;6.44;58.56;102127.84;5130767;27;20068;-89
2021/01/14 11:02:23;;;;;;;6.32;1.80;;;;;;;6.39;57.48;102126.88;5136392;27;20027;-88
2021/01/14 11:04:56;;;;;;;4.97;2.03;;;;;;;6.25;56.53;102117.84;5151956;27;20050;-89
2021/01/14 11:07:22;;;;;;;4.60;1.92;;;;;;;6.38;57.84;102119.84;5137343;27;20122;-87
2021/01/14 11:09:50;;;;;;;8.45;2.38;;;;;;;6.46;57.99;102123.47;5125422;27;20490;-89
2021/01/14 11:12:17;;;;;;;6.07;1.90;;;;;;;6.41;57.91;102117.25;5120958;28;20036;-88
2021/01/14 11:14:44;;;;;;;6.95;3.08;;;;;;;6.32;57.45;102114.47;5120362;27;20020;-88
2021/01/14 11:17:13;;;;;;;4.75;2.00;;;;;;;6.43;57.56;102112.91;5120676;28;20118;-92
2021/01/14 11:19:39;;;;;;;6.85;2.60;;;;;;;6.39;57.89;102116.38;5120983;27;20105;-89
2021/01/14 11:22:06;;;;;;;7.50;2.08;;;;;;;6.47;57.87;102109.47;5125236;27;20032;-88
2021/01/14 11:24:32;;;;;;;8.73;2.28;;;;;;;6.40;57.90;102110.22;5121593;28;20023;-88
2021/01/14 11:26:58;;;;;;;8.93;2.35;;;;;;;6.53;57.55;102107.78;5131737;27;20031;-85
2021/01/14 11:29:27;;;;;;;11.32;2.35;;;;;;;6.44;57.97;102117.31;5130860;27;20047;-85
2021/01/14 11:31:53;;;;;;;6.25;2.40;;;;;;;6.49;57.97;102120.00;5115857;28;20028;-90
2021/01/14 11:34:19;;;;;;;12.20;3.17;;;;;;;6.49;58.24;102114.75;5110605;28;20106;-87
2021/01/14 11:36:45;;;;;;;7.20;2.65;;;;;;;6.56;58.29;102115.75;5128459;28;20031;-87
2021/01/14 11:39:12;;;;;;;7.35;2.38;;;;;;;6.59;58.44;102105.25;5129589;28;20031;-85
2021/01/14 11:41:38;;;;;;;7.60;2.80;;;;;;;6.64;58.27;102101.84;5129857;28;20019;-85
2021/01/14 11:44:13;;;;;;;6.80;2.47;;;;;;;6.61;58.15;102103.56;5127949;27;20417;-86
2021/01/14 11:46:41;;;;;;;5.38;2.72;;;;;;;6.54;57.76;102099.03;5127544;27;20027;-85
2021/01/14 11:49:07;;;;;;;4.45;2.35;;;;;;;6.42;57.28;102095.34;5128632;27;20118;-85
2021/01/14 11:51:33;;;;;;;7.40;2.90;;;;;;;6.36;57.68;102097.84;5115647;28;20032;-84
2021/01/14 11:54:01;;;;;;;6.47;3.20;;;;;;;6.34;57.61;102091.66;5115863;28;20035;-84
2021/01/14 11:56:27;;;;;;;6.88;2.40;;;;;;;6.22;57.37;102086.19;5114329;28;20312;-88
2021/01/14 11:58:53;;;;;;;9.10;2.78;;;;;;;6.27;57.35;102082.78;5115703;28;20067;-85
2021/01/14 12:01:22;;;;;;;7.78;3.03;;;;;;;6.17;56.99;102080.88;5115618;28;20088;-86
2021/01/14 12:03:48;;;;;;;8.60;2.97;;;;;;;6.05;56.69;102078.88;5115981;28;20440;-86
2021/01/14 12:06:15;;;;;;;12.48;2.85;;;;;;;5.91;56.92;102075.09;5106501;28;20035;-86
2021/01/14 12:08:41;;;;;;;5.70;2.97;;;;;;;6.12;56.81;102080.78;5099377;28;20486;-86
2021/01/14 12:11:08;;;;;;;6.38;2.55;;;;;;;6.20;56.78;102077.41;5098130;28;20072;-84
2021/01/14 12:13:34;;;;;;;6.38;3.08;;;;;;;6.15;56.85;102074.69;5115934;28;20490;-84
2021/01/14 12:16:01;;;;;;;7.30;2.75;;;;;;;6.03;57.11;102080.63;5102088;28;20370;-84
2021/01/14 12:18:28;;;;;;;6.40;3.40;;;;;;;6.09;57.12;102080.72;5095796;28;20063;-85
2021/01/14 12:20:56;;;;;;;11.55;2.80;;;;;;;6.28;56.56;102068.78;5105444;28;20351;-85
2021/01/14 12:23:22;;;;;;;10.68;2.97;;;;;;;6.24;56.78;102066.06;5106943;28;20024;-85
2021/01/14 12:25:50;;;;;;;5.88;2.40;;;;;;;6.32;56.68;102069.72;5104261;28;20017;-88
2021/01/14 12:28:16;;;;;;;7.50;2.78;;;;;;;6.32;56.91;102069.72;5107960;27;20028;-84
2021/01/14 12:30:42;;;;;;;9.02;3.63;;;;;;;6.34;56.57;102065.34;5105962;28;20023;-83
2021/01/14 12:33:08;;;;;;;5.47;2.95;;;;;;;6.39;56.31;102061.06;5103983;28;20386;-88
2021/01/14 12:35:34;;;;;;;6.15;2.63;;;;;;;6.46;56.52;102069.94;5106749;28;20015;-84
2021/01/14 12:38:01;;;;;;;8.55;3.35;;;;;;;6.52;56.32;102069.16;5105632;28;20039;-83
2021/01/14 12:40:29;;;;;;;6.82;3.42;;;;;;;6.58;56.60;102063.97;5102830;28;20035;-91
2021/01/14 12:42:55;;;;;;;9.20;3.08;;;;;;;6.54;57.01;102067.44;5107451;28;20016;-84
2021/01/14 12:45:21;;;;;;;7.32;3.47;;;;;;;6.62;56.65;102065.81;5105094;28;20023;-83
2021/01/14 12:47:48;;;;;;;6.72;3.13;;;;;;;6.69;56.44;102051.91;5103405;28;20027;-83
2021/01/14 12:50:15;;;;;;;7.68;3.70;;;;;;;6.62;56.41;102048.25;5109256;28;20023;-85
2021/01/14 12:52:41;;;;;;;9.52;3.60;;;;;;;6.65;56.14;102044.78;5108725;28;20492;-84
2021/01/14 12:55:08;;;;;;;10.30;3.92;;;;;;;6.71;56.26;102047.53;5101878;28;20028;-86
2021/01/14 12:57:34;;;;;;;43.22;20.52;;;;;;;6.75;55.70;102030.94;5093544;28;20470;-87